createdAt,value
2023-11-01T00:01:10.730Z,10.21
2023-11-01T00:03:37.713Z,10.20
2023-11-01T00:06:05.084Z,10.19
2023-11-01T00:08:31.949Z,10.21
2023-11-01T00:10:58.832Z,10.19
2023-11-01T00:13:25.680Z,10.20
2023-11-01T00:15:52.459Z,10.20
2023-11-01T00:18:19.792Z,10.18
2023-11-01T00:20:46.946Z,10.19
2023-11-01T00:23:13.859Z,10.19
2023-11-01T00:25:42.045Z,10.18
2023-11-01T00:28:09.276Z,10.17
2023-11-01T00:30:36.579Z,10.18
2023-11-01T00:33:03.710Z,10.17
2023-11-01T00:35:30.564Z,10.17
2023-11-01T00:37:57.367Z,10.16
2023-11-01T00:40:24.135Z,10.15
2023-11-01T00:42:51.052Z,10.16
2023-11-01T00:45:18.102Z,10.16
2023-11-01T00:47:45.136Z,10.17
2023-11-01T00:50:11.985Z,10.17
2023-11-01T00:52:38.799Z,10.15
2023-11-01T00:55:06.173Z,10.16
2023-11-01T00:57:33.981Z,10.17
2023-11-01T01:00:02.312Z,10.17
2023-11-01T01:02:29.349Z,10.18
2023-11-01T01:04:56.279Z,10.18
2023-11-01T01:07:23.745Z,10.18
2023-11-01T01:09:50.704Z,10.16
2023-11-01T01:12:17.572Z,10.17
2023-11-01T01:14:44.511Z,10.18
2023-11-01T01:17:11.422Z,10.18
2023-11-01T01:19:38.309Z,10.20
2023-11-01T01:22:05.443Z,10.22
2023-11-01T01:24:32.389Z,10.23
2023-11-01T01:26:59.198Z,10.22
2023-11-01T01:29:26.020Z,10.23
2023-11-01T01:31:52.811Z,10.25
2023-11-01T01:34:19.760Z,10.23
2023-11-01T01:36:46.535Z,10.26
2023-11-01T01:39:13.304Z,10.24
2023-11-01T01:41:40.506Z,10.24
2023-11-01T01:44:08.116Z,10.25
2023-11-01T01:46:35.605Z,10.26
2023-11-01T01:49:02.637Z,10.27
2023-11-01T01:51:29.700Z,10.24
2023-11-01T01:53:57.225Z,10.25
2023-11-01T01:56:25.860Z,10.24
2023-11-01T01:58:53.538Z,10.23
2023-11-01T02:01:32.404Z,10.22
2023-11-01T02:04:05.723Z,10.21
2023-11-01T02:06:32.723Z,10.20
2023-11-01T02:08:59.602Z,10.19
2023-11-01T02:11:26.504Z,10.20
2023-11-01T02:13:53.286Z,10.20
2023-11-01T02:16:20.109Z,10.21
2023-11-01T02:18:46.927Z,10.22
2023-11-01T02:21:13.805Z,10.22
2023-11-01T02:23:41.824Z,10.22
2023-11-01T02:26:08.765Z,10.20
2023-11-01T02:28:35.983Z,10.19
2023-11-01T02:31:04.737Z,10.21
2023-11-01T02:33:32.840Z,10.21
2023-11-01T02:35:59.649Z,10.21
2023-11-01T02:38:26.462Z,10.20
2023-11-01T02:40:53.235Z,10.20
2023-11-01T02:43:20.043Z,10.20
2023-11-01T02:45:47.154Z,10.19
2023-11-01T02:48:14.144Z,10.20
2023-11-01T02:50:41.256Z,10.18
2023-11-01T02:53:08.017Z,10.18
2023-11-01T02:55:34.832Z,10.18
2023-11-01T02:58:03.742Z,10.19
2023-11-01T03:00:30.629Z,10.20
2023-11-01T03:02:58.637Z,10.21
2023-11-01T03:05:29.699Z,10.22
2023-11-01T03:07:57.765Z,10.23
2023-11-01T03:10:24.993Z,10.24
2023-11-01T03:12:51.869Z,10.25
2023-11-01T03:15:18.819Z,10.26
2023-11-01T03:17:45.748Z,10.27
2023-11-01T03:20:12.749Z,10.28
2023-11-01T03:22:39.646Z,10.29
2023-11-01T03:25:07.101Z,10.30
2023-11-01T03:27:34.111Z,10.30
2023-11-01T03:30:01.110Z,10.31
2023-11-01T03:32:28.123Z,10.32
2023-11-01T03:34:54.997Z,10.32
2023-11-01T03:37:21.812Z,10.31
2023-11-01T03:39:48.642Z,10.32
2023-11-01T03:42:15.577Z,10.32
2023-11-01T03:44:43.223Z,10.34
2023-11-01T03:47:10.107Z,10.34
2023-11-01T03:49:36.897Z,10.35
2023-11-01T03:52:04.528Z,10.34
2023-11-01T03:54:35.007Z,10.35
2023-11-01T03:57:04.047Z,10.37
2023-11-01T03:59:32.204Z,10.38
2023-11-01T04:01:59.688Z,10.37
2023-11-01T04:04:26.483Z,10.38
2023-11-01T04:06:53.307Z,10.37
2023-11-01T04:09:20.305Z,10.38
2023-11-01T04:11:47.335Z,10.38
2023-11-01T04:14:15.935Z,10.39
2023-11-01T04:16:43.136Z,10.39
2023-11-01T04:19:12.585Z,10.41
2023-11-01T04:21:39.572Z,10.42
2023-11-01T04:24:06.734Z,10.42
2023-11-01T04:26:35.069Z,10.43
2023-11-01T04:29:01.979Z,10.41
2023-11-01T04:31:28.966Z,10.43
2023-11-01T04:33:55.975Z,10.45
2023-11-01T04:36:28.562Z,10.44
2023-11-01T04:38:56.805Z,10.45
2023-11-01T04:41:29.411Z,10.45
2023-11-01T04:43:56.717Z,10.47
2023-11-01T04:46:23.893Z,10.47
2023-11-01T04:48:51.407Z,10.47
2023-11-01T04:51:18.517Z,10.48
2023-11-01T04:53:46.060Z,10.48
2023-11-01T04:56:12.977Z,10.49
2023-11-01T04:58:40.152Z,10.51
2023-11-01T05:01:09.137Z,10.52
2023-11-01T05:03:40.001Z,10.52
2023-11-01T05:06:07.706Z,10.52
2023-11-01T05:08:36.118Z,10.52
2023-11-01T05:11:03.480Z,10.52
2023-11-01T05:13:30.270Z,10.53
2023-11-01T05:15:57.232Z,10.53
2023-11-01T05:18:25.931Z,10.55
2023-11-01T05:20:53.169Z,10.56
2023-11-01T05:23:20.528Z,10.57
2023-11-01T05:25:50.259Z,10.57
2023-11-01T05:28:17.334Z,10.61
2023-11-01T05:30:44.262Z,10.61
2023-11-01T05:33:11.194Z,10.62
2023-11-01T05:35:38.393Z,10.63
2023-11-01T05:38:08.289Z,10.64
2023-11-01T05:40:35.083Z,10.66
2023-11-01T05:43:01.868Z,10.66
2023-11-01T05:45:29.755Z,10.69
2023-11-01T05:47:57.423Z,10.70
2023-11-01T05:50:26.356Z,10.72
2023-11-01T05:52:55.858Z,10.73
2023-11-01T05:55:26.725Z,10.74
2023-11-01T05:58:01.255Z,10.77
2023-11-01T06:00:28.363Z,10.79
2023-11-01T06:02:55.517Z,10.82
2023-11-01T06:05:24.264Z,10.82
2023-11-01T06:07:51.831Z,10.86
2023-11-01T06:10:19.336Z,10.87
2023-11-01T06:12:46.374Z,10.88
2023-11-01T06:15:14.612Z,10.90
2023-11-01T06:17:41.828Z,10.93
2023-11-01T06:20:09.288Z,10.94
2023-11-01T06:22:36.264Z,10.96
2023-11-01T06:25:03.501Z,10.99
2023-11-01T06:27:30.452Z,11.00
2023-11-01T06:29:57.521Z,11.02
2023-11-01T06:32:24.479Z,11.03
2023-11-01T06:34:51.332Z,11.05
2023-11-01T06:37:18.415Z,11.06
2023-11-01T06:39:45.435Z,11.08
2023-11-01T06:42:12.481Z,11.09
2023-11-01T06:44:39.439Z,11.11
2023-11-01T06:47:06.465Z,11.13
2023-11-01T06:49:35.758Z,11.14
2023-11-01T06:52:03.012Z,11.15
2023-11-01T06:54:29.934Z,11.17
2023-11-01T06:56:57.774Z,11.18
2023-11-01T06:59:24.980Z,11.19
2023-11-01T07:01:52.782Z,11.20
2023-11-01T07:04:19.880Z,11.22
2023-11-01T07:06:47.181Z,11.23
2023-11-01T07:09:14.307Z,11.24
2023-11-01T07:11:41.256Z,11.26
2023-11-01T07:14:08.278Z,11.26
2023-11-01T07:16:42.622Z,11.28
2023-11-01T07:19:09.732Z,11.30
2023-11-01T07:21:36.724Z,11.30
2023-11-01T07:24:03.831Z,11.32
2023-11-01T07:26:30.971Z,11.35
2023-11-01T07:28:57.908Z,11.35
2023-11-01T07:31:24.927Z,11.37
2023-11-01T07:33:51.901Z,11.40
2023-11-01T07:36:20.056Z,11.41
2023-11-01T07:38:47.737Z,11.43
2023-11-01T07:41:16.402Z,11.44
2023-11-01T07:43:43.918Z,11.46
2023-11-01T07:46:11.856Z,11.48
2023-11-01T07:48:38.876Z,11.49
2023-11-01T07:51:07.232Z,11.49
2023-11-01T07:53:36.117Z,11.49
2023-11-01T07:56:03.780Z,11.50
2023-11-01T07:58:32.335Z,11.52
2023-11-01T08:01:00.027Z,11.53
2023-11-01T08:03:27.732Z,11.52
2023-11-01T08:05:55.063Z,11.54
2023-11-01T08:08:22.172Z,11.55
2023-11-01T08:10:49.198Z,11.57
2023-11-01T08:13:16.757Z,11.60
2023-11-01T08:15:44.058Z,11.63
2023-11-01T08:18:11.967Z,11.66
2023-11-01T08:20:40.011Z,11.68
2023-11-01T08:23:07.414Z,11.70
2023-11-01T08:25:35.925Z,11.72
2023-11-01T08:28:04.092Z,11.74
2023-11-01T08:30:31.017Z,11.77
2023-11-01T08:32:58.380Z,11.79
2023-11-01T08:35:25.579Z,11.82
2023-11-01T08:37:52.580Z,11.83
2023-11-01T08:40:19.804Z,11.85
2023-11-01T08:42:47.062Z,11.86
2023-11-01T08:45:14.033Z,11.87
2023-11-01T08:47:47.184Z,11.87
2023-11-01T08:50:15.066Z,11.88
2023-11-01T08:52:47.264Z,11.91
2023-11-01T08:55:15.575Z,11.94
2023-11-01T08:57:45.476Z,11.97
2023-11-01T09:00:15.192Z,11.98
2023-11-01T09:02:42.904Z,12.01
2023-11-01T09:05:10.499Z,12.05
2023-11-01T09:07:38.271Z,12.05
2023-11-01T09:10:06.695Z,12.07
2023-11-01T09:12:33.668Z,12.11
2023-11-01T09:15:01.668Z,12.17
2023-11-01T09:17:28.850Z,12.22
2023-11-01T09:19:58.999Z,12.30
2023-11-01T09:22:33.116Z,12.37
2023-11-01T09:25:01.428Z,12.40
2023-11-01T09:27:29.570Z,12.40
2023-11-01T09:29:57.366Z,12.41
2023-11-01T09:32:24.464Z,12.43
2023-11-01T09:34:53.410Z,12.49
2023-11-01T09:37:20.620Z,12.54
2023-11-01T09:39:47.982Z,12.50
2023-11-01T09:42:22.657Z,12.52
2023-11-01T09:44:57.049Z,12.55
2023-11-01T09:47:26.230Z,12.56
2023-11-01T09:49:58.325Z,12.57
2023-11-01T09:52:25.531Z,12.55
2023-11-01T09:54:52.719Z,12.58
2023-11-01T09:57:23.902Z,12.61
2023-11-01T09:59:51.770Z,12.66
2023-11-01T10:02:19.228Z,12.69
2023-11-01T10:04:46.284Z,12.81
2023-11-01T10:07:13.437Z,12.89
2023-11-01T10:09:40.837Z,12.96
2023-11-01T10:12:09.866Z,13.09
2023-11-01T10:14:38.130Z,13.15
2023-11-01T10:17:05.786Z,13.26
2023-11-01T10:19:33.415Z,13.27
2023-11-01T10:22:00.618Z,13.27
2023-11-01T10:24:28.785Z,13.28
2023-11-01T10:26:58.717Z,13.31
2023-11-01T10:29:28.771Z,13.32
2023-11-01T10:31:57.206Z,13.33
2023-11-01T10:34:31.947Z,13.34
2023-11-01T10:37:01.189Z,13.37
2023-11-01T10:39:28.259Z,13.33
2023-11-01T10:41:56.701Z,13.28
2023-11-01T10:44:24.577Z,13.26
2023-11-01T10:46:52.147Z,13.29
2023-11-01T10:49:20.171Z,13.32
2023-11-01T10:51:47.218Z,13.36
2023-11-01T10:54:14.524Z,13.36
2023-11-01T10:56:42.141Z,13.35
2023-11-01T10:59:33.050Z,13.38
2023-11-01T11:02:18.727Z,13.36
2023-11-01T11:04:55.206Z,13.37
2023-11-01T11:07:50.198Z,13.35
2023-11-01T11:10:28.321Z,13.33
2023-11-01T11:13:10.628Z,13.37
2023-11-01T11:15:52.663Z,13.48
2023-11-01T11:18:24.091Z,13.53
2023-11-01T11:20:55.166Z,13.55
2023-11-01T11:23:32.892Z,13.56
2023-11-01T11:26:01.742Z,13.58
2023-11-01T11:28:41.128Z,13.58
2023-11-01T11:31:19.741Z,13.54
2023-11-01T11:33:47.402Z,13.46
2023-11-01T11:36:19.483Z,13.37
2023-11-01T11:38:57.218Z,13.32
2023-11-01T11:41:40.746Z,13.37
2023-11-01T11:44:16.764Z,13.41
2023-11-01T11:46:48.759Z,13.44
2023-11-01T11:49:32.745Z,13.47
2023-11-01T11:52:03.337Z,13.49
2023-11-01T11:54:32.232Z,13.44
2023-11-01T11:57:04.172Z,13.43
2023-11-01T11:59:33.220Z,13.43
2023-11-01T12:02:15.170Z,13.50
2023-11-01T12:04:44.708Z,13.52
2023-11-01T12:07:22.597Z,13.62
2023-11-01T12:09:50.868Z,13.71
2023-11-01T12:12:17.936Z,13.78
2023-11-01T12:14:48.061Z,13.92
2023-11-01T12:17:15.601Z,14.07
2023-11-01T12:19:48.299Z,14.10
2023-11-01T12:22:17.004Z,14.04
2023-11-01T12:24:47.742Z,13.97
2023-11-01T12:27:16.402Z,13.89
2023-11-01T12:29:47.378Z,13.79
2023-11-01T12:32:17.945Z,13.77
2023-11-01T12:34:47.756Z,13.78
2023-11-01T12:37:31.472Z,13.89
2023-11-01T12:40:15.722Z,13.97
2023-11-01T12:43:06.333Z,14.15
2023-11-01T12:45:34.288Z,14.24
2023-11-01T12:48:01.814Z,14.16
2023-11-01T12:50:33.071Z,14.19
2023-11-01T12:53:00.603Z,14.17
2023-11-01T12:55:28.014Z,14.15
2023-11-01T12:57:56.152Z,14.14
2023-11-01T13:00:24.854Z,14.09
2023-11-01T13:02:53.548Z,14.12
2023-11-01T13:05:21.637Z,14.14
2023-11-01T13:07:49.259Z,14.17
2023-11-01T13:10:17.597Z,14.18
2023-11-01T13:12:46.709Z,14.22
2023-11-01T13:15:14.695Z,14.22
2023-11-01T13:17:41.838Z,14.17
2023-11-01T13:20:09.394Z,14.17
2023-11-01T13:22:37.555Z,14.22
2023-11-01T13:25:04.804Z,14.25
2023-11-01T13:27:31.764Z,14.26
2023-11-01T13:29:58.690Z,14.23
2023-11-01T13:32:25.694Z,14.22
2023-11-01T13:34:52.775Z,14.21
2023-11-01T13:37:19.838Z,14.14
2023-11-01T13:39:46.861Z,14.11
2023-11-01T13:42:16.673Z,14.00
2023-11-01T13:44:45.089Z,13.86
2023-11-01T13:47:12.618Z,13.75
2023-11-01T13:49:41.428Z,13.64
2023-11-01T13:52:09.934Z,13.59
2023-11-01T13:54:36.875Z,13.55
2023-11-01T13:57:06.439Z,13.51
2023-11-01T13:59:33.428Z,13.49
2023-11-01T14:02:00.743Z,13.50
2023-11-01T14:04:27.908Z,13.52
2023-11-01T14:06:54.962Z,13.49
2023-11-01T14:09:22.410Z,13.48
2023-11-01T14:11:53.525Z,13.45
2023-11-01T14:14:22.704Z,13.42
2023-11-01T14:16:50.287Z,13.42
2023-11-01T14:19:17.244Z,13.39
2023-11-01T14:21:44.494Z,13.39
2023-11-01T14:24:11.843Z,13.38
2023-11-01T14:26:39.297Z,13.31
2023-11-01T14:29:07.711Z,13.30
2023-11-01T14:31:34.839Z,13.24
2023-11-01T14:34:01.995Z,13.22
2023-11-01T14:36:29.139Z,13.21
2023-11-01T14:38:56.252Z,13.16
2023-11-01T14:41:23.403Z,13.12
2023-11-01T14:43:50.607Z,13.07
2023-11-01T14:46:17.648Z,13.02
2023-11-01T14:48:45.373Z,12.99
2023-11-01T14:51:12.941Z,12.96
2023-11-01T14:53:40.049Z,12.90
2023-11-01T14:56:16.115Z,12.86
2023-11-01T14:58:48.438Z,12.77
2023-11-01T15:01:16.301Z,12.70
2023-11-01T15:03:45.636Z,12.63
2023-11-01T15:06:13.543Z,12.58
2023-11-01T15:08:41.133Z,12.53
2023-11-01T15:11:08.483Z,12.50
2023-11-01T15:13:35.584Z,12.46
2023-11-01T15:16:02.608Z,12.44
2023-11-01T15:18:29.763Z,12.38
2023-11-01T15:20:57.050Z,12.32
2023-11-01T15:23:24.080Z,12.28
2023-11-01T15:25:51.198Z,12.23
2023-11-01T15:28:18.042Z,12.18
2023-11-01T15:30:45.112Z,12.14
2023-11-01T15:33:12.664Z,12.10
2023-11-01T15:35:40.265Z,12.07
2023-11-01T15:38:07.311Z,12.04
2023-11-01T15:40:35.168Z,12.03
2023-11-01T15:43:03.396Z,11.98
2023-11-01T15:45:30.383Z,11.96
2023-11-01T15:47:57.734Z,11.94
2023-11-01T15:50:24.824Z,11.91
2023-11-01T15:52:51.753Z,11.89
2023-11-01T15:55:18.714Z,11.85
2023-11-01T15:57:45.902Z,11.84
2023-11-01T16:00:13.853Z,11.81
2023-11-01T16:02:40.966Z,11.81
2023-11-01T16:05:08.691Z,11.79
2023-11-01T16:07:35.726Z,11.79
2023-11-01T16:10:03.798Z,11.77
2023-11-01T16:12:30.847Z,11.71
2023-11-01T16:14:57.844Z,11.72
2023-11-01T16:17:24.821Z,11.68
2023-11-01T16:19:51.707Z,11.66
2023-11-01T16:22:19.857Z,11.64
2023-11-01T16:24:46.662Z,11.62
2023-11-01T16:27:13.632Z,11.59
2023-11-01T16:29:40.615Z,11.59
2023-11-01T16:32:07.806Z,11.58
2023-11-01T16:34:35.497Z,11.57
2023-11-01T16:37:02.918Z,11.55
2023-11-01T16:39:29.785Z,11.55
2023-11-01T16:41:56.839Z,11.53
2023-11-01T16:44:23.896Z,11.52
2023-11-01T16:46:51.040Z,11.49
2023-11-01T16:49:18.130Z,11.49
2023-11-01T16:51:47.895Z,11.48
2023-11-01T16:54:16.237Z,11.48
2023-11-01T16:56:43.212Z,11.48
2023-11-01T16:59:10.262Z,11.46
2023-11-01T17:01:37.245Z,11.46
2023-11-01T17:04:04.737Z,11.43
2023-11-01T17:06:31.988Z,11.40
2023-11-01T17:08:58.902Z,11.36
2023-11-01T17:11:26.973Z,11.33
2023-11-01T17:13:55.591Z,11.27
2023-11-01T17:16:22.619Z,11.22
2023-11-01T17:18:49.618Z,11.18
2023-11-01T17:21:16.710Z,11.14
2023-11-01T17:23:45.806Z,11.13
2023-11-01T17:26:27.648Z,11.11
2023-11-01T17:28:56.603Z,11.07
2023-11-01T17:31:45.236Z,11.04
2023-11-01T17:34:20.545Z,11.00
2023-11-01T17:36:47.589Z,10.98
2023-11-01T17:39:14.572Z,10.92
2023-11-01T17:41:50.639Z,10.91
2023-11-01T17:44:18.619Z,10.87
2023-11-01T17:46:45.470Z,10.85
2023-11-01T17:49:41.514Z,10.82
2023-11-01T17:52:08.828Z,10.79
2023-11-01T17:54:38.354Z,10.77
2023-11-01T17:57:06.616Z,10.74
2023-11-01T17:59:37.813Z,10.72
2023-11-01T18:02:31.365Z,10.70
2023-11-01T18:05:00.323Z,10.69
2023-11-01T18:07:27.913Z,10.66
2023-11-01T18:09:58.193Z,10.64
2023-11-01T18:12:25.145Z,10.62
2023-11-01T18:14:55.258Z,10.59
2023-11-01T18:17:23.189Z,10.58
2023-11-01T18:19:50.471Z,10.55
2023-11-01T18:22:41.274Z,10.52
2023-11-01T18:25:30.857Z,10.50
2023-11-01T18:28:01.935Z,10.48
2023-11-01T18:30:29.004Z,10.46
2023-11-01T18:32:56.008Z,10.46
2023-11-01T18:35:30.979Z,10.46
2023-11-01T18:37:57.771Z,10.44
2023-11-01T18:40:25.776Z,10.46
2023-11-01T18:42:58.766Z,10.48
2023-11-01T18:45:25.891Z,10.46
2023-11-01T18:47:54.249Z,10.45
2023-11-01T18:50:21.331Z,10.40
2023-11-01T18:52:48.589Z,10.38
2023-11-01T18:55:33.770Z,10.35
2023-11-01T18:58:00.626Z,10.36
2023-11-01T19:00:28.458Z,10.33
2023-11-01T19:03:06.897Z,10.33
2023-11-01T19:05:34.886Z,10.33
2023-11-01T19:08:02.169Z,10.32
2023-11-01T19:10:34.702Z,10.31
2023-11-01T19:13:02.819Z,10.28
2023-11-01T19:15:38.605Z,10.26
2023-11-01T19:18:11.278Z,10.22
2023-11-01T19:20:40.342Z,10.20
2023-11-01T19:23:08.022Z,10.19
2023-11-01T19:25:35.240Z,10.16
2023-11-01T19:28:03.457Z,10.13
2023-11-01T19:30:30.379Z,10.14
2023-11-01T19:32:57.509Z,10.11
2023-11-01T19:35:24.438Z,10.09
2023-11-01T19:37:51.360Z,10.05
2023-11-01T19:40:19.950Z,10.04
2023-11-01T19:42:47.303Z,10.02
2023-11-01T19:45:14.277Z,10.00
2023-11-01T19:47:42.258Z,9.99
2023-11-01T19:50:09.974Z,9.98
2023-11-01T19:52:38.002Z,9.98
2023-11-01T19:55:05.425Z,9.97
2023-11-01T19:57:33.694Z,9.95
2023-11-01T20:00:00.927Z,9.93
2023-11-01T20:02:28.069Z,9.93
2023-11-01T20:04:55.357Z,9.90
2023-11-01T20:07:22.442Z,9.90
2023-11-01T20:09:49.280Z,9.90
2023-11-01T20:12:16.184Z,9.90
2023-11-01T20:14:43.338Z,9.87
2023-11-01T20:17:11.822Z,9.84
2023-11-01T20:19:38.824Z,9.81
2023-11-01T20:22:05.770Z,9.78
2023-11-01T20:24:32.742Z,9.77
2023-11-01T20:26:59.711Z,9.74
2023-11-01T20:29:27.801Z,9.73
2023-11-01T20:31:54.785Z,9.69
2023-11-01T20:34:22.037Z,9.69
2023-11-01T20:36:49.039Z,9.67
2023-11-01T20:39:15.889Z,9.63
2023-11-01T20:41:43.427Z,9.61
2023-11-01T20:44:10.236Z,9.62
2023-11-01T20:46:37.153Z,9.58
2023-11-01T20:49:04.870Z,9.55
2023-11-01T20:51:31.847Z,9.53
2023-11-01T20:53:59.689Z,9.52
2023-11-01T20:56:26.783Z,9.49
2023-11-01T20:58:54.287Z,9.48
2023-11-01T21:01:21.231Z,9.47
2023-11-01T21:03:49.098Z,9.44
2023-11-01T21:06:16.298Z,9.40
2023-11-01T21:08:43.294Z,9.39
2023-11-01T21:11:10.422Z,9.37
2023-11-01T21:13:37.339Z,9.36
2023-11-01T21:16:04.723Z,9.34
2023-11-01T21:18:33.070Z,9.32
2023-11-01T21:21:02.022Z,9.30
2023-11-01T21:23:29.062Z,9.27
2023-11-01T21:25:56.603Z,9.26
2023-11-01T21:28:23.707Z,9.23
2023-11-01T21:30:50.857Z,9.19
2023-11-01T21:33:22.500Z,9.15
2023-11-01T21:35:49.802Z,9.14
2023-11-01T21:38:18.138Z,9.10
2023-11-01T21:40:47.881Z,9.10
2023-11-01T21:43:18.659Z,9.07
2023-11-01T21:45:52.819Z,9.05
2023-11-01T21:48:25.813Z,9.02
2023-11-01T21:50:56.155Z,9.01
2023-11-01T21:53:23.823Z,8.97
2023-11-01T21:55:55.594Z,8.96
2023-11-01T21:58:26.462Z,8.93
2023-11-01T22:01:00.014Z,8.90
2023-11-01T22:03:42.159Z,8.89
2023-11-01T22:06:39.606Z,8.88
2023-11-01T22:09:06.568Z,8.86
2023-11-01T22:11:40.157Z,8.84
2023-11-01T22:14:09.007Z,8.82
2023-11-01T22:16:37.656Z,8.79
2023-11-01T22:19:38.499Z,8.77
2023-11-01T22:22:21.368Z,8.77
2023-11-01T22:24:48.857Z,8.74
2023-11-01T22:27:17.554Z,8.73
2023-11-01T22:29:51.104Z,8.71
2023-11-01T22:32:23.574Z,8.66
2023-11-01T22:34:52.964Z,8.64
2023-11-01T22:37:28.509Z,8.63
2023-11-01T22:39:57.062Z,8.62
2023-11-01T22:42:32.139Z,8.61
2023-11-01T22:45:03.510Z,8.63
2023-11-01T22:47:31.238Z,8.62
2023-11-01T22:49:59.153Z,8.57
2023-11-01T22:52:26.119Z,8.56
2023-11-01T22:54:53.047Z,8.56
2023-11-01T22:57:19.908Z,8.54
2023-11-01T22:59:46.816Z,8.56
2023-11-01T23:02:16.592Z,8.54
2023-11-01T23:04:43.879Z,8.54
2023-11-01T23:07:11.721Z,8.51
2023-11-01T23:09:38.706Z,8.50
2023-11-01T23:12:06.320Z,8.53
2023-11-01T23:14:33.242Z,8.50
2023-11-01T23:17:00.029Z,8.52
2023-11-01T23:19:27.051Z,8.51
2023-11-01T23:21:54.102Z,8.50
2023-11-01T23:24:24.412Z,8.50
2023-11-01T23:26:54.879Z,8.52
2023-11-01T23:29:37.021Z,8.51
2023-11-01T23:32:17.091Z,8.51
2023-11-01T23:34:52.184Z,8.49
2023-11-01T23:37:38.842Z,8.48
2023-11-01T23:40:11.548Z,8.46
2023-11-01T23:42:38.626Z,8.47
2023-11-01T23:45:55.142Z,8.47
2023-11-01T23:48:22.044Z,8.45
2023-11-01T23:50:49.392Z,8.44
2023-11-01T23:53:26.300Z,8.45
2023-11-01T23:55:54.014Z,8.46
2023-11-01T23:58:34.793Z,8.47
